createdAt,value
2022-08-08T00:01:16.991Z,99337.06
2022-08-08T00:03:56.025Z,99336.84
2022-08-08T00:06:39.290Z,99331.09
2022-08-08T00:09:15.938Z,99335.03
2022-08-08T00:12:09.314Z,99340.28
2022-08-08T00:14:59.846Z,99334.16
2022-08-08T00:18:02.200Z,99337.91
2022-08-08T00:20:37.394Z,99332.91
2022-08-08T00:23:09.286Z,99335.22
2022-08-08T00:25:46.616Z,99338.53
2022-08-08T00:28:35.211Z,99334.88
2022-08-08T00:32:21.292Z,99331.13
2022-08-08T00:34:20.485Z,99326.47
2022-08-08T00:37:03.588Z,99319.72
2022-08-08T00:41:06.864Z,99320.91
2022-08-08T00:43:06.030Z,99321.03
2022-08-08T00:46:02.226Z,99318.16
2022-08-08T00:49:03.548Z,99330.16
2022-08-08T00:52:05.494Z,99329.59
2022-08-08T00:55:17.920Z,99334.91
2022-08-08T00:58:30.682Z,99339.38
2022-08-08T01:01:15.916Z,99353.50
2022-08-08T01:04:36.788Z,99354.06
2022-08-08T01:07:57.449Z,99362.31
2022-08-08T01:11:09.715Z,99354.97
2022-08-08T01:14:13.643Z,99350.75
2022-08-08T01:17:52.081Z,99357.56
2022-08-08T01:20:44.297Z,99358.44
2022-08-08T01:24:05.509Z,99356.34
2022-08-08T01:26:51.990Z,99361.28
2022-08-08T01:30:03.317Z,99360.94
2022-08-08T01:33:24.009Z,99363.53
2022-08-08T01:36:37.728Z,99363.69
2022-08-08T01:39:23.380Z,99364.31
2022-08-08T01:41:59.027Z,99358.94
2022-08-08T01:44:43.702Z,99361.28
2022-08-08T01:48:03.653Z,99361.34
2022-08-08T01:50:35.841Z,99364.56
2022-08-08T01:54:33.535Z,99367.59
2022-08-08T01:56:28.503Z,99365.34
2022-08-08T01:59:19.990Z,99372.50
2022-08-08T02:02:09.320Z,99368.97
2022-08-08T02:04:50.948Z,99363.44
2022-08-08T02:07:26.506Z,99370.50
2022-08-08T02:10:37.168Z,99376.56
2022-08-08T02:13:53.924Z,99380.09
2022-08-08T02:16:20.927Z,99370.84
2022-08-08T02:18:58.733Z,99372.16
2022-08-08T02:21:50.716Z,99377.69
2022-08-08T02:24:22.861Z,99372.94
2022-08-08T02:27:01.251Z,99366.28
2022-08-08T02:29:53.150Z,99362.34
2022-08-08T02:33:00.431Z,99363.03
2022-08-08T02:36:04.598Z,99357.97
2022-08-08T02:38:48.969Z,99365.47
2022-08-08T02:42:04.152Z,99356.84
2022-08-08T02:45:09.631Z,99362.34
2022-08-08T02:48:17.162Z,99358.72
2022-08-08T02:51:46.426Z,99369.28
2022-08-08T02:54:54.351Z,99365.38
2022-08-08T02:58:10.447Z,99369.00
2022-08-08T03:01:15.351Z,99369.84
2022-08-08T03:05:04.547Z,99367.97
2022-08-08T03:07:57.951Z,99379.69
2022-08-08T03:10:54.245Z,99376.78
2022-08-08T03:16:00.295Z,99367.69
2022-08-08T03:16:55.143Z,99369.28
2022-08-08T03:20:04.576Z,99364.25
2022-08-08T03:22:46.567Z,99382.34
2022-08-08T03:25:18.660Z,99380.19
2022-08-08T03:27:56.432Z,99391.72
2022-08-08T03:30:25.776Z,99389.41
2022-08-08T03:33:55.355Z,99385.88
2022-08-08T03:36:00.985Z,99397.66
2022-08-08T03:38:56.393Z,99399.66
2022-08-08T03:42:11.392Z,99400.06
2022-08-08T03:44:10.571Z,99406.28
2022-08-08T03:46:50.593Z,99400.69
2022-08-08T03:49:58.928Z,99403.63
2022-08-08T03:52:12.808Z,99409.94
2022-08-08T03:55:01.966Z,99411.13
2022-08-08T03:58:34.445Z,99410.28
2022-08-08T04:00:22.233Z,99422.06
2022-08-08T04:03:00.958Z,99418.84
2022-08-08T04:05:30.974Z,99419.75
2022-08-08T04:08:01.414Z,99426.66
2022-08-08T04:10:32.797Z,99422.63
2022-08-08T04:13:03.723Z,99426.16
2022-08-08T04:16:04.142Z,99425.19
2022-08-08T04:18:41.925Z,99429.94
2022-08-08T04:21:13.555Z,99422.94
2022-08-08T04:24:11.666Z,99428.84
2022-08-08T04:26:56.858Z,99432.09
2022-08-08T04:29:26.061Z,99435.00
2022-08-08T04:31:59.292Z,99439.06
2022-08-08T04:34:32.003Z,99439.16
2022-08-08T04:37:03.904Z,99438.13
2022-08-08T04:40:03.959Z,99436.06
2022-08-08T04:42:22.030Z,99438.56
2022-08-08T04:44:52.796Z,99444.16
2022-08-08T04:47:21.084Z,99451.13
2022-08-08T04:50:01.638Z,99444.84
2022-08-08T04:52:33.804Z,99450.16
2022-08-08T04:55:02.580Z,99452.38
2022-08-08T04:57:34.517Z,99456.59
2022-08-08T05:00:02.866Z,99456.06
2022-08-08T05:02:31.689Z,99464.56
2022-08-08T05:05:00.687Z,99456.69
2022-08-08T05:07:37.810Z,99462.50
2022-08-08T05:10:12.940Z,99456.53
2022-08-08T05:13:00.292Z,99466.25
2022-08-08T05:16:48.355Z,99461.34
2022-08-08T05:18:18.736Z,99467.34
2022-08-08T05:20:52.117Z,99470.13
2022-08-08T05:23:21.704Z,99465.91
2022-08-08T05:25:50.136Z,99467.53
2022-08-08T05:28:55.837Z,99470.06
2022-08-08T05:31:08.813Z,99467.25
2022-08-08T05:33:56.213Z,99469.75
2022-08-08T05:36:27.947Z,99463.25
2022-08-08T05:38:59.406Z,99469.75
2022-08-08T05:41:27.883Z,99468.44
2022-08-08T05:44:13.077Z,99471.38
2022-08-08T05:46:43.100Z,99472.97
2022-08-08T05:49:17.664Z,99477.63
2022-08-08T05:51:49.653Z,99479.84
2022-08-08T05:54:28.803Z,99480.63
2022-08-08T05:57:59.519Z,99482.22
2022-08-08T06:00:23.373Z,99487.16
2022-08-08T06:03:17.717Z,99489.00
2022-08-08T06:05:56.583Z,99482.97
2022-08-08T06:08:34.957Z,99483.84
2022-08-08T06:11:05.049Z,99491.41
2022-08-08T06:13:36.080Z,99490.25
2022-08-08T06:16:16.783Z,99493.50
2022-08-08T06:18:50.225Z,99489.22
2022-08-08T06:21:32.541Z,99500.50
2022-08-08T06:24:22.884Z,99492.34
2022-08-08T06:27:04.246Z,99490.81
2022-08-08T06:29:49.497Z,99491.13
2022-08-08T06:32:32.838Z,99496.84
2022-08-08T06:36:01.053Z,99495.16
2022-08-08T06:37:59.274Z,99494.53
2022-08-08T06:40:32.156Z,99490.53
2022-08-08T06:43:05.701Z,99496.09
2022-08-08T06:45:36.516Z,99502.66
2022-08-08T06:48:08.606Z,99500.63
2022-08-08T06:50:39.533Z,99495.84
2022-08-08T06:53:14.105Z,99494.16
2022-08-08T06:56:01.920Z,99496.31
2022-08-08T06:58:33.245Z,99504.34
2022-08-08T07:01:52.362Z,99505.44
2022-08-08T07:04:40.188Z,99506.66
2022-08-08T07:06:52.525Z,99510.53
2022-08-08T07:09:22.087Z,99503.25
2022-08-08T07:11:59.198Z,99505.91
2022-08-08T07:14:35.932Z,99506.66
2022-08-08T07:17:09.588Z,99501.41
2022-08-08T07:19:59.711Z,99499.53
2022-08-08T07:22:39.603Z,99503.41
2022-08-08T07:25:11.042Z,99499.19
2022-08-08T07:28:02.231Z,99498.97
2022-08-08T07:30:36.141Z,99500.25
2022-08-08T07:33:05.646Z,99503.19
2022-08-08T07:35:40.544Z,99506.25
2022-08-08T07:38:20.643Z,99504.19
2022-08-08T07:40:50.782Z,99504.34
2022-08-08T07:43:23.193Z,99502.81
2022-08-08T07:46:23.503Z,99499.56
2022-08-08T07:48:53.712Z,99497.38
2022-08-08T07:51:44.632Z,99492.44
2022-08-08T07:54:27.050Z,99496.13
2022-08-08T07:57:04.301Z,99494.22
2022-08-08T07:59:48.998Z,99499.34
2022-08-08T08:02:33.553Z,99489.84
2022-08-08T08:05:15.135Z,99485.91
2022-08-08T08:07:53.049Z,99496.84
2022-08-08T08:10:30.176Z,99488.44
2022-08-08T08:13:25.790Z,99487.97
2022-08-08T08:16:11.468Z,99492.19
2022-08-08T08:18:55.712Z,99483.34
2022-08-08T08:21:44.324Z,99480.88
2022-08-08T08:24:19.004Z,99481.53
2022-08-08T08:26:52.691Z,99486.31
2022-08-08T08:29:24.368Z,99479.53
2022-08-08T08:31:58.396Z,99481.94
2022-08-08T08:34:32.266Z,99474.59
2022-08-08T08:37:08.169Z,99474.31
2022-08-08T08:39:59.851Z,99474.06
2022-08-08T08:42:29.392Z,99472.38
2022-08-08T08:45:16.466Z,99466.16
2022-08-08T08:47:54.713Z,99466.59
2022-08-08T08:50:33.799Z,99461.13
2022-08-08T08:53:28.370Z,99473.06
2022-08-08T08:55:56.041Z,99465.13
2022-08-08T08:58:34.007Z,99461.91
2022-08-08T09:01:08.290Z,99454.19
2022-08-08T09:03:46.831Z,99455.50
2022-08-08T09:06:28.252Z,99445.78
2022-08-08T09:09:04.410Z,99445.50
2022-08-08T09:11:47.776Z,99442.00
2022-08-08T09:14:26.450Z,99441.41
2022-08-08T09:16:57.057Z,99433.56
2022-08-08T09:21:56.667Z,99427.50
2022-08-08T09:22:25.991Z,99435.53
2022-08-08T09:24:58.480Z,99432.03
2022-08-08T09:27:56.495Z,99432.34
2022-08-08T09:30:20.168Z,99434.47
2022-08-08T09:33:13.147Z,99423.84
2022-08-08T09:35:49.955Z,99431.31
2022-08-08T09:38:33.622Z,99423.50
2022-08-08T09:41:06.775Z,99427.03
2022-08-08T09:44:06.523Z,99424.00
2022-08-08T09:46:38.724Z,99424.75
2022-08-08T09:49:40.929Z,99437.69
2022-08-08T09:52:06.553Z,99413.44
2022-08-08T09:54:44.149Z,99411.94
2022-08-08T09:57:19.012Z,99407.97
2022-08-08T10:00:28.887Z,99412.31
2022-08-08T10:02:45.117Z,99412.06
2022-08-08T10:05:22.694Z,99410.19
2022-08-08T10:07:59.730Z,99414.69
2022-08-08T10:10:31.821Z,99398.63
2022-08-08T10:13:13.959Z,99393.78
2022-08-08T10:16:00.240Z,99396.34
2022-08-08T10:18:30.855Z,99399.41
2022-08-08T10:21:22.449Z,99395.28
2022-08-08T10:23:58.314Z,99389.44
2022-08-08T10:26:58.564Z,99396.09
2022-08-08T10:29:28.229Z,99380.22
2022-08-08T10:32:27.489Z,99383.31
2022-08-08T10:35:01.377Z,99371.59
2022-08-08T10:37:31.822Z,99368.50
2022-08-08T10:40:16.883Z,99369.78
2022-08-08T10:42:46.263Z,99371.88
2022-08-08T10:45:16.800Z,99355.22
2022-08-08T10:47:55.596Z,99362.34
2022-08-08T10:50:33.412Z,99358.56
2022-08-08T10:53:07.744Z,99348.88
2022-08-08T10:55:45.695Z,99351.19
2022-08-08T10:58:15.590Z,99357.28
2022-08-08T11:00:48.557Z,99358.03
2022-08-08T11:03:36.315Z,99342.94
2022-08-08T11:06:12.603Z,99339.38
2022-08-08T11:08:46.262Z,99336.25
2022-08-08T11:11:59.994Z,99334.81
2022-08-08T11:14:12.430Z,99326.88
2022-08-08T11:16:47.137Z,99331.88
2022-08-08T11:19:18.158Z,99336.66
2022-08-08T11:21:54.270Z,99325.41
2022-08-08T11:24:26.850Z,99322.28
2022-08-08T11:26:59.180Z,99326.69
2022-08-08T11:29:50.730Z,99328.06
2022-08-08T11:32:22.252Z,99316.88
2022-08-08T11:35:23.515Z,99328.16
2022-08-08T11:38:35.828Z,99323.56
2022-08-08T11:40:46.399Z,99324.88
2022-08-08T11:43:21.691Z,99308.97
2022-08-08T11:46:09.949Z,99305.66
2022-08-08T11:48:44.966Z,99319.16
2022-08-08T11:51:38.113Z,99297.81
2022-08-08T11:54:09.707Z,99312.88
2022-08-08T11:56:55.958Z,99305.22
2022-08-08T11:59:57.667Z,99312.38
2022-08-08T12:02:32.222Z,99291.94
2022-08-08T12:05:06.793Z,99294.66
2022-08-08T12:07:49.719Z,99298.22
2022-08-08T12:10:21.871Z,99293.59
2022-08-08T12:12:54.668Z,99289.88
2022-08-08T12:15:28.453Z,99291.69
2022-08-08T12:17:56.728Z,99295.31
2022-08-08T12:20:25.816Z,99294.97
2022-08-08T12:22:57.110Z,99288.41
2022-08-08T12:25:31.177Z,99278.09
2022-08-08T12:28:15.503Z,99306.47
2022-08-08T12:30:48.202Z,99287.09
2022-08-08T12:33:20.229Z,99290.66
2022-08-08T12:35:52.934Z,99282.97
2022-08-08T12:38:30.446Z,99301.63
2022-08-08T12:41:05.766Z,99269.44
2022-08-08T12:44:00.533Z,99282.16
2022-08-08T12:46:29.726Z,99273.19
2022-08-08T12:49:21.971Z,99282.16
2022-08-08T12:51:59.221Z,99279.91
2022-08-08T12:54:33.263Z,99276.38
2022-08-08T12:57:17.163Z,99266.94
2022-08-08T13:00:05.365Z,99256.19
2022-08-08T13:02:51.811Z,99247.25
2022-08-08T13:05:27.033Z,99252.28
2022-08-08T13:08:20.600Z,99252.78
2022-08-08T13:10:56.912Z,99246.13
2022-08-08T13:13:34.744Z,99245.28
2022-08-08T13:16:18.917Z,99236.47
2022-08-08T13:18:58.299Z,99234.66
2022-08-08T13:21:48.729Z,99241.81
2022-08-08T13:24:39.519Z,99236.34
2022-08-08T13:27:13.670Z,99241.75
2022-08-08T13:29:51.289Z,99253.81
2022-08-08T13:32:23.558Z,99240.22
2022-08-08T13:34:56.583Z,99235.34
2022-08-08T13:37:27.874Z,99218.38
2022-08-08T13:40:27.215Z,99239.69
2022-08-08T13:42:58.377Z,99230.66
2022-08-08T13:45:27.093Z,99248.28
2022-08-08T13:47:59.185Z,99238.56
2022-08-08T13:50:36.532Z,99241.13
2022-08-08T13:53:24.366Z,99236.81
2022-08-08T13:56:02.033Z,99233.72
2022-08-08T13:58:33.275Z,99233.34
2022-08-08T14:01:13.726Z,99246.81
2022-08-08T14:03:54.996Z,99231.03
2022-08-08T14:06:32.913Z,99238.06
2022-08-08T14:09:25.441Z,99229.88
2022-08-08T14:11:51.687Z,99224.25
2022-08-08T14:14:26.280Z,99231.94
2022-08-08T14:16:57.288Z,99236.81
2022-08-08T14:19:57.676Z,99222.75
2022-08-08T14:22:24.337Z,99225.81
2022-08-08T14:24:59.778Z,99222.22
2022-08-08T14:27:34.044Z,99215.88
2022-08-08T14:30:18.475Z,99218.16
2022-08-08T14:32:52.844Z,99217.84
2022-08-08T14:35:23.321Z,99221.13
2022-08-08T14:38:00.347Z,99215.06
2022-08-08T14:40:32.751Z,99213.03
2022-08-08T14:43:01.819Z,99218.59
2022-08-08T14:46:03.351Z,99219.09
2022-08-08T14:48:41.841Z,99216.03
2022-08-08T14:51:23.524Z,99215.31
2022-08-08T14:53:55.193Z,99211.97
2022-08-08T14:56:25.482Z,99221.13
2022-08-08T14:58:54.805Z,99213.03
2022-08-08T15:01:37.222Z,99213.03
2022-08-08T15:04:10.493Z,99223.25
2022-08-08T15:06:38.933Z,99226.84
2022-08-08T15:09:07.813Z,99215.41
2022-08-08T15:11:43.326Z,99218.72
2022-08-08T15:14:15.101Z,99206.44
2022-08-08T15:16:45.274Z,99205.69
2022-08-08T15:19:15.600Z,99203.13
2022-08-08T15:21:44.811Z,99201.84
2022-08-08T15:24:16.193Z,99206.69
2022-08-08T15:26:52.247Z,99200.28
2022-08-08T15:29:22.631Z,99209.44
2022-08-08T15:32:18.062Z,99198.75
2022-08-08T15:34:42.553Z,99204.88
2022-08-08T15:37:10.973Z,99200.56
2022-08-08T15:39:41.428Z,99197.22
2022-08-08T15:42:13.086Z,99202.06
2022-08-08T15:44:43.101Z,99208.19
2022-08-08T15:47:15.753Z,99208.44
2022-08-08T15:49:48.926Z,99195.94
2022-08-08T15:52:40.360Z,99202.34
2022-08-08T15:55:11.549Z,99200.56
2022-08-08T15:57:40.806Z,99193.44
2022-08-08T16:00:27.238Z,99198.56
2022-08-08T16:02:59.345Z,99203.13
2022-08-08T16:05:35.884Z,99194.47
2022-08-08T16:08:20.207Z,99204.94
2022-08-08T16:13:03.838Z,99215.66
2022-08-08T16:13:45.166Z,99218.44
2022-08-08T16:16:17.882Z,99213.84
2022-08-08T16:18:53.122Z,99212.31
2022-08-08T16:21:29.002Z,99216.66
2022-08-08T16:23:57.690Z,99254.13
2022-08-08T16:26:33.942Z,99237.22
2022-08-08T16:29:09.242Z,99229.72
2022-08-08T16:31:40.923Z,99234.09
2022-08-08T16:34:11.263Z,99231.88
2022-08-08T16:36:49.498Z,99247.59
2022-08-08T16:40:01.399Z,99244.88
2022-08-08T16:42:18.334Z,99248.16
2022-08-08T16:44:54.877Z,99276.19
2022-08-08T16:47:39.971Z,99281.00
2022-08-08T16:50:15.318Z,99293.13
2022-08-08T16:55:02.587Z,99324.00
2022-08-08T16:55:53.637Z,99324.59
2022-08-08T16:58:25.591Z,99288.31
2022-08-08T17:00:58.872Z,99251.84
2022-08-08T17:03:58.342Z,99253.38
2022-08-08T17:06:37.374Z,99241.34
2022-08-08T17:09:06.029Z,99249.34
2022-08-08T17:11:48.042Z,99243.22
2022-08-08T17:14:18.723Z,99244.66
2022-08-08T17:16:51.720Z,99257.97
2022-08-08T17:19:26.415Z,99255.06
2022-08-08T17:21:56.779Z,99264.47
2022-08-08T17:24:29.888Z,99264.47
2022-08-08T17:26:59.454Z,99267.25
2022-08-08T17:29:27.803Z,99271.22
2022-08-08T17:31:57.379Z,99270.28
2022-08-08T17:34:53.569Z,99269.63
2022-08-08T17:37:16.300Z,99272.31
2022-08-08T17:40:10.946Z,99283.88
2022-08-08T17:42:37.010Z,99291.69
2022-08-08T17:45:06.716Z,99292.06
2022-08-08T17:47:42.845Z,99292.19
2022-08-08T17:50:18.938Z,99307.25
2022-08-08T17:52:48.481Z,99310.94
2022-08-08T17:56:03.942Z,99307.88
2022-08-08T17:58:05.714Z,99315.66
2022-08-08T18:00:41.341Z,99314.09
2022-08-08T18:03:13.176Z,99321.25
2022-08-08T18:05:48.719Z,99326.00
2022-08-08T18:08:25.131Z,99329.44
2022-08-08T18:11:08.391Z,99335.22
2022-08-08T18:13:41.364Z,99332.63
2022-08-08T18:16:10.311Z,99334.31
2022-08-08T18:18:42.656Z,99334.75
2022-08-08T18:21:24.863Z,99340.56
2022-08-08T18:24:03.387Z,99339.34
2022-08-08T18:26:31.566Z,99350.50
2022-08-08T18:29:01.851Z,99348.94
2022-08-08T18:31:30.151Z,99342.75
2022-08-08T18:34:12.180Z,99346.78
2022-08-08T18:36:47.793Z,99361.78
2022-08-08T18:39:28.348Z,99363.94
2022-08-08T18:41:59.940Z,99363.38
2022-08-08T18:44:32.986Z,99356.63
2022-08-08T18:47:05.112Z,99370.69
2022-08-08T18:49:57.767Z,99369.50
2022-08-08T18:52:23.352Z,99373.28
2022-08-08T18:55:00.699Z,99377.16
2022-08-08T18:57:41.631Z,99379.53
2022-08-08T19:00:16.525Z,99379.06
2022-08-08T19:02:56.188Z,99382.66
2022-08-08T19:05:34.343Z,99386.06
2022-08-08T19:08:10.348Z,99387.53
2022-08-08T19:10:55.728Z,99385.91
2022-08-08T19:13:25.223Z,99391.31
2022-08-08T19:15:55.945Z,99388.69
2022-08-08T19:18:32.522Z,99388.41
2022-08-08T19:21:29.602Z,99394.41
2022-08-08T19:23:59.664Z,99395.94
2022-08-08T19:26:31.214Z,99397.81
2022-08-08T19:29:00.171Z,99393.03
2022-08-08T19:31:31.258Z,99393.78
2022-08-08T19:34:35.491Z,99388.22
2022-08-08T19:36:53.549Z,99385.91
2022-08-08T19:39:23.786Z,99386.06
2022-08-08T19:41:53.289Z,99384.38
2022-08-08T19:44:43.223Z,99390.25
2022-08-08T19:47:09.889Z,99382.97
2022-08-08T19:49:43.469Z,99383.91
2022-08-08T19:52:34.432Z,99392.63
2022-08-08T19:55:05.089Z,99391.53
2022-08-08T19:57:37.775Z,99388.88
2022-08-08T20:00:11.546Z,99382.25
2022-08-08T20:02:57.045Z,99389.06
2022-08-08T20:06:15.137Z,99390.75
2022-08-08T20:08:29.193Z,99398.78
2022-08-08T20:11:00.050Z,99392.94
2022-08-08T20:14:33.568Z,99397.56
2022-08-08T20:16:19.621Z,99391.25
2022-08-08T20:18:52.643Z,99395.41
2022-08-08T20:21:25.387Z,99397.88
2022-08-08T20:23:57.634Z,99392.50
2022-08-08T20:26:33.275Z,99404.06
2022-08-08T20:29:04.307Z,99402.53
2022-08-08T20:32:02.919Z,99402.56
2022-08-08T20:34:30.573Z,99410.88
2022-08-08T20:37:00.932Z,99406.38
2022-08-08T20:39:39.173Z,99406.97
2022-08-08T20:42:20.412Z,99412.09
2022-08-08T20:44:58.685Z,99414.09
2022-08-08T20:47:26.911Z,99412.09
2022-08-08T20:50:05.570Z,99409.00
2022-08-08T20:52:33.758Z,99406.38
2022-08-08T20:55:02.197Z,99407.59
2022-08-08T20:57:47.741Z,99410.69
2022-08-08T21:00:21.007Z,99411.47
2022-08-08T21:02:52.825Z,99406.97
2022-08-08T21:05:21.630Z,99414.09
2022-08-08T21:08:07.806Z,99415.47
2022-08-08T21:10:41.189Z,99414.84
2022-08-08T21:13:09.978Z,99412.81
2022-08-08T21:16:06.319Z,99407.56
2022-08-08T21:18:28.078Z,99413.72
2022-08-08T21:20:56.603Z,99415.41
2022-08-08T21:23:58.570Z,99415.72
2022-08-08T21:26:13.509Z,99419.44
2022-08-08T21:28:55.834Z,99414.72
2022-08-08T21:31:58.516Z,99423.34
2022-08-08T21:34:18.971Z,99427.63
2022-08-08T21:36:49.302Z,99425.78
2022-08-08T21:39:17.903Z,99426.69
2022-08-08T21:41:51.166Z,99433.47
2022-08-08T21:44:21.893Z,99433.59
2022-08-08T21:48:04.936Z,99429.16
2022-08-08T21:49:39.553Z,99428.38
2022-08-08T21:54:34.185Z,99427.88
2022-08-08T21:55:04.202Z,99432.78
2022-08-08T21:57:42.950Z,99433.06
2022-08-08T22:00:26.003Z,99434.88
2022-08-08T22:02:55.860Z,99437.19
2022-08-08T22:05:23.998Z,99418.25
2022-08-08T22:07:52.063Z,99432.41
2022-08-08T22:10:31.953Z,99429.34
2022-08-08T22:13:18.659Z,99425.00
2022-08-08T22:15:59.565Z,99434.25
2022-08-08T22:18:33.847Z,99432.22
2022-08-08T22:21:10.757Z,99435.84
2022-08-08T22:23:49.460Z,99440.91
2022-08-08T22:26:28.754Z,99440.91
2022-08-08T22:29:14.893Z,99451.59
2022-08-08T22:31:58.666Z,99449.44
2022-08-08T22:34:33.020Z,99459.94
2022-08-08T22:37:14.879Z,99456.56
2022-08-08T22:40:01.136Z,99458.03
2022-08-08T22:42:34.319Z,99449.84
2022-08-08T22:45:03.415Z,99451.00
2022-08-08T22:47:38.401Z,99453.59
2022-08-08T22:50:26.211Z,99450.63
2022-08-08T22:53:22.477Z,99452.88
2022-08-08T22:55:59.265Z,99459.97
2022-08-08T22:58:31.159Z,99456.44
2022-08-08T23:01:00.994Z,99463.75
2022-08-08T23:03:52.936Z,99457.84
2022-08-08T23:06:19.302Z,99454.22
2022-08-08T23:08:55.611Z,99448.94
2022-08-08T23:11:31.114Z,99454.75
2022-08-08T23:14:17.487Z,99451.16
2022-08-08T23:16:57.609Z,99454.59
2022-08-08T23:19:31.034Z,99451.00
2022-08-08T23:22:04.225Z,99449.28
2022-08-08T23:24:36.122Z,99449.69
2022-08-08T23:27:06.392Z,99452.44
2022-08-08T23:29:34.558Z,99456.97
2022-08-08T23:32:04.755Z,99451.91
2022-08-08T23:34:34.263Z,99452.03
2022-08-08T23:37:04.699Z,99453.81
2022-08-08T23:39:42.114Z,99456.16
2022-08-08T23:42:21.389Z,99453.38
2022-08-08T23:44:50.019Z,99452.50
2022-08-08T23:48:59.777Z,99440.88
2022-08-08T23:50:29.817Z,99448.47
2022-08-08T23:53:03.501Z,99449.91
2022-08-08T23:55:33.723Z,99452.16
2022-08-08T23:58:32.147Z,99448.41
